createdAt,value
2023-03-16T00:00:42.870Z,67.62
2023-03-16T00:03:10.553Z,67.08
2023-03-16T00:05:37.601Z,67.07
2023-03-16T00:08:04.873Z,67.33
2023-03-16T00:10:31.444Z,67.44
2023-03-16T00:12:57.878Z,67.43
2023-03-16T00:15:24.328Z,67.27
2023-03-16T00:17:50.677Z,67.27
2023-03-16T00:20:18.483Z,68.06
2023-03-16T00:22:45.068Z,67.38
2023-03-16T00:25:14.333Z,67.42
2023-03-16T00:27:41.235Z,67.54
2023-03-16T00:30:08.708Z,67.33
2023-03-16T00:32:37.298Z,67.25
2023-03-16T00:35:07.424Z,67.87
2023-03-16T00:37:36.907Z,67.27
2023-03-16T00:40:04.073Z,67.67
2023-03-16T00:42:31.390Z,67.63
2023-03-16T00:44:59.012Z,67.77
2023-03-16T00:47:28.382Z,67.46
2023-03-16T00:49:55.209Z,67.30
2023-03-16T00:52:23.379Z,67.55
2023-03-16T00:54:53.369Z,67.43
2023-03-16T00:57:21.645Z,67.32
2023-03-16T00:59:48.916Z,67.02
2023-03-16T01:02:19.257Z,66.96
2023-03-16T01:04:45.910Z,66.93
2023-03-16T01:07:14.464Z,66.93
2023-03-16T01:09:42.190Z,66.75
2023-03-16T01:12:12.478Z,67.14
2023-03-16T01:14:40.442Z,67.08
2023-03-16T01:17:08.743Z,67.33
2023-03-16T01:19:37.417Z,66.77
2023-03-16T01:22:05.841Z,66.90
2023-03-16T01:24:32.986Z,66.59
2023-03-16T01:26:59.390Z,66.51
2023-03-16T01:29:25.828Z,66.43
2023-03-16T01:31:52.268Z,66.45
2023-03-16T01:34:18.876Z,66.30
2023-03-16T01:36:48.357Z,66.27
2023-03-16T01:39:15.535Z,66.13
2023-03-16T01:41:42.564Z,65.79
2023-03-16T01:44:30.555Z,66.03
2023-03-16T01:46:57.709Z,65.76
2023-03-16T01:49:37.944Z,65.82
2023-03-16T01:52:33.718Z,65.56
2023-03-16T01:55:08.584Z,65.88
2023-03-16T01:57:39.638Z,65.57
2023-03-16T02:00:11.106Z,66.27
2023-03-16T02:02:43.557Z,66.07
2023-03-16T02:05:16.383Z,65.43
2023-03-16T02:07:58.505Z,65.29
2023-03-16T02:10:27.574Z,65.23
2023-03-16T02:12:55.190Z,65.40
2023-03-16T02:15:21.584Z,65.00
2023-03-16T02:17:49.724Z,65.43
2023-03-16T02:20:50.624Z,65.26
2023-03-16T02:23:20.952Z,65.45
2023-03-16T02:26:00.283Z,65.52
2023-03-16T02:28:51.051Z,65.54
2023-03-16T02:31:19.341Z,65.66
2023-03-16T02:33:47.696Z,65.47
2023-03-16T02:36:15.209Z,65.81
2023-03-16T02:38:41.620Z,65.63
2023-03-16T02:41:17.411Z,65.76
2023-03-16T02:44:10.791Z,65.71
2023-03-16T02:46:38.174Z,66.07
2023-03-16T02:49:16.329Z,65.37
2023-03-16T02:51:45.351Z,65.62
2023-03-16T02:54:12.693Z,65.82
2023-03-16T02:56:39.684Z,65.52
2023-03-16T02:59:06.383Z,65.91
2023-03-16T03:01:34.738Z,65.58
2023-03-16T03:04:01.823Z,65.64
2023-03-16T03:06:28.639Z,65.50
2023-03-16T03:08:54.997Z,65.32
2023-03-16T03:11:21.561Z,65.46
2023-03-16T03:13:48.001Z,65.51
2023-03-16T03:16:14.621Z,65.41
2023-03-16T03:18:41.170Z,65.32
2023-03-16T03:21:07.791Z,65.70
2023-03-16T03:23:35.471Z,65.56
2023-03-16T03:26:02.921Z,65.69
2023-03-16T03:28:29.478Z,65.86
2023-03-16T03:30:56.586Z,65.74
2023-03-16T03:33:23.231Z,65.95
2023-03-16T03:35:58.195Z,65.94
2023-03-16T03:38:25.985Z,66.06
2023-03-16T03:40:53.468Z,66.13
2023-03-16T03:43:20.968Z,65.86
2023-03-16T03:45:47.387Z,66.00
2023-03-16T03:48:13.786Z,66.15
2023-03-16T03:50:40.549Z,66.57
2023-03-16T03:53:07.485Z,65.80
2023-03-16T03:55:33.856Z,66.20
2023-03-16T03:58:00.361Z,66.10
2023-03-16T04:00:26.931Z,66.01
2023-03-16T04:02:53.593Z,66.20
2023-03-16T04:05:20.118Z,65.79
2023-03-16T04:07:46.483Z,65.92
2023-03-16T04:10:12.888Z,66.02
2023-03-16T04:12:39.408Z,66.29
2023-03-16T04:15:06.164Z,66.35
2023-03-16T04:17:34.253Z,65.94
2023-03-16T04:20:02.090Z,66.18
2023-03-16T04:22:30.270Z,65.90
2023-03-16T04:24:56.684Z,66.23
2023-03-16T04:27:23.152Z,66.34
2023-03-16T04:29:49.590Z,66.36
2023-03-16T04:32:15.949Z,67.14
2023-03-16T04:34:43.717Z,66.50
2023-03-16T04:37:10.233Z,66.34
2023-03-16T04:39:36.636Z,66.49
2023-03-16T04:42:03.094Z,66.47
2023-03-16T04:44:29.542Z,66.49
2023-03-16T04:46:55.959Z,66.61
2023-03-16T04:49:22.319Z,66.51
2023-03-16T04:51:48.673Z,66.46
2023-03-16T04:54:15.420Z,65.75
2023-03-16T04:56:41.869Z,66.70
2023-03-16T04:59:08.417Z,66.82
2023-03-16T05:01:34.891Z,67.07
2023-03-16T05:04:02.488Z,67.11
2023-03-16T05:06:29.193Z,67.25
2023-03-16T05:08:55.575Z,66.99
2023-03-16T05:11:21.952Z,67.51
2023-03-16T05:13:48.333Z,67.34
2023-03-16T05:16:14.788Z,67.26
2023-03-16T05:18:41.646Z,66.89
2023-03-16T05:21:08.154Z,67.46
2023-03-16T05:23:34.624Z,67.83
2023-03-16T05:26:01.099Z,67.11
2023-03-16T05:28:27.963Z,67.49
2023-03-16T05:30:54.853Z,67.57
2023-03-16T05:33:21.578Z,67.90
2023-03-16T05:35:48.277Z,67.92
2023-03-16T05:38:15.865Z,68.05
2023-03-16T05:40:42.413Z,68.53
2023-03-16T05:43:08.832Z,68.05
2023-03-16T05:45:35.309Z,67.98
2023-03-16T05:48:01.644Z,68.48
2023-03-16T05:50:28.588Z,68.04
2023-03-16T05:52:55.142Z,68.00
2023-03-16T05:55:21.569Z,67.75
2023-03-16T05:57:47.953Z,68.26
2023-03-16T06:00:16.178Z,68.05
2023-03-16T06:02:43.541Z,68.08
2023-03-16T06:05:11.104Z,67.89
2023-03-16T06:07:37.618Z,67.74
2023-03-16T06:10:05.178Z,68.15
2023-03-16T06:12:32.347Z,67.76
2023-03-16T06:14:58.791Z,67.68
2023-03-16T06:17:25.137Z,67.12
2023-03-16T06:19:51.546Z,66.89
2023-03-16T06:22:18.432Z,67.55
2023-03-16T06:24:44.874Z,67.25
2023-03-16T06:27:11.817Z,67.70
2023-03-16T06:29:38.251Z,66.82
2023-03-16T06:32:05.020Z,67.17
2023-03-16T06:34:31.482Z,66.50
2023-03-16T06:36:57.884Z,66.54
2023-03-16T06:39:24.451Z,66.76
2023-03-16T06:41:50.856Z,66.76
2023-03-16T06:44:17.300Z,66.15
2023-03-16T06:46:43.940Z,66.17
2023-03-16T06:49:10.999Z,65.74
2023-03-16T06:51:37.494Z,65.96
2023-03-16T06:54:04.098Z,65.23
2023-03-16T06:56:31.806Z,65.44
2023-03-16T06:58:58.259Z,65.65
2023-03-16T07:01:24.916Z,65.46
2023-03-16T07:03:51.373Z,65.02
2023-03-16T07:06:18.085Z,65.56
2023-03-16T07:08:44.488Z,65.30
2023-03-16T07:11:10.903Z,65.51
2023-03-16T07:13:37.554Z,65.53
2023-03-16T07:16:04.886Z,65.53
2023-03-16T07:18:31.722Z,65.50
2023-03-16T07:20:58.327Z,65.32
2023-03-16T07:23:25.882Z,65.32
2023-03-16T07:25:52.776Z,65.46
2023-03-16T07:28:19.665Z,65.28
2023-03-16T07:31:02.623Z,65.19
2023-03-16T07:33:32.138Z,64.96
2023-03-16T07:35:58.916Z,65.18
2023-03-16T07:38:25.415Z,65.62
2023-03-16T07:40:54.429Z,64.99
2023-03-16T07:43:20.818Z,65.08
2023-03-16T07:45:51.899Z,64.83
2023-03-16T07:48:19.620Z,65.02
2023-03-16T07:50:49.458Z,65.26
2023-03-16T07:53:16.319Z,65.09
2023-03-16T07:55:43.226Z,64.76
2023-03-16T07:58:10.752Z,64.66
2023-03-16T08:00:38.094Z,64.86
2023-03-16T08:03:04.616Z,65.11
2023-03-16T08:05:32.523Z,64.78
2023-03-16T08:07:59.253Z,64.41
2023-03-16T08:10:25.770Z,64.79
2023-03-16T08:12:52.614Z,64.07
2023-03-16T08:15:19.341Z,64.12
2023-03-16T08:17:46.486Z,64.05
2023-03-16T08:20:14.996Z,63.88
2023-03-16T08:22:46.263Z,63.84
2023-03-16T08:25:14.213Z,63.57
2023-03-16T08:27:42.776Z,64.10
2023-03-16T08:30:11.885Z,63.85
2023-03-16T08:32:42.283Z,64.12
2023-03-16T08:35:13.389Z,63.02
2023-03-16T08:37:41.489Z,63.52
2023-03-16T08:40:15.671Z,63.50
2023-03-16T08:42:43.055Z,63.47
2023-03-16T08:45:13.582Z,63.82
2023-03-16T08:47:40.656Z,63.85
2023-03-16T08:50:08.781Z,63.82
2023-03-16T08:52:36.429Z,63.84
2023-03-16T08:55:05.464Z,62.87
2023-03-16T08:57:33.458Z,63.20
2023-03-16T09:00:00.228Z,63.24
2023-03-16T09:02:26.782Z,63.14
2023-03-16T09:04:53.252Z,63.07
2023-03-16T09:07:20.411Z,63.36
2023-03-16T09:09:46.795Z,63.07
2023-03-16T09:12:13.645Z,63.15
2023-03-16T09:14:40.068Z,63.05
2023-03-16T09:17:11.607Z,63.15
2023-03-16T09:19:50.600Z,63.04
2023-03-16T09:22:19.482Z,62.17
2023-03-16T09:24:45.870Z,62.00
2023-03-16T09:27:12.327Z,62.13
2023-03-16T09:29:38.832Z,61.63
2023-03-16T09:32:05.374Z,61.70
2023-03-16T09:34:33.303Z,61.26
2023-03-16T09:37:00.478Z,62.03
2023-03-16T09:39:27.342Z,61.94
2023-03-16T09:41:59.005Z,61.42
2023-03-16T09:44:29.186Z,61.28
2023-03-16T09:46:59.375Z,61.36
2023-03-16T09:49:32.027Z,61.15
2023-03-16T09:52:49.413Z,61.36
2023-03-16T09:55:28.420Z,61.09
2023-03-16T09:57:57.380Z,61.35
2023-03-16T10:00:37.605Z,61.10
2023-03-16T10:03:15.893Z,60.87
2023-03-16T10:05:42.231Z,60.16
2023-03-16T10:08:33.048Z,60.56
2023-03-16T10:11:08.712Z,60.64
2023-03-16T10:13:46.628Z,60.08
2023-03-16T10:16:19.261Z,59.92
2023-03-16T10:18:48.711Z,60.37
2023-03-16T10:21:18.159Z,59.75
2023-03-16T10:23:48.491Z,59.27
2023-03-16T10:26:20.957Z,60.53
2023-03-16T10:28:47.935Z,60.09
2023-03-16T10:31:17.042Z,59.65
2023-03-16T10:33:43.728Z,59.11
2023-03-16T10:36:15.400Z,59.56
2023-03-16T10:38:50.677Z,58.59
2023-03-16T10:41:20.457Z,58.44
2023-03-16T10:44:07.127Z,57.32
2023-03-16T10:46:48.588Z,56.86
2023-03-16T10:49:27.803Z,57.01
2023-03-16T10:51:57.878Z,55.12
2023-03-16T10:54:30.505Z,54.97
2023-03-16T10:56:58.841Z,54.78
2023-03-16T10:59:34.883Z,54.64
2023-03-16T11:02:03.658Z,53.85
2023-03-16T11:04:33.340Z,53.18
2023-03-16T11:06:59.780Z,52.66
2023-03-16T11:09:33.355Z,53.08
2023-03-16T11:12:12.108Z,52.64
2023-03-16T11:14:38.507Z,52.68
2023-03-16T11:17:12.469Z,51.32
2023-03-16T11:19:52.776Z,49.50
2023-03-16T11:22:25.248Z,47.73
2023-03-16T11:25:06.918Z,45.82
2023-03-16T11:27:58.386Z,44.39
2023-03-16T11:30:30.834Z,43.49
2023-03-16T11:33:00.200Z,42.23
2023-03-16T11:35:36.271Z,42.16
2023-03-16T11:38:58.345Z,43.00
2023-03-16T11:41:51.684Z,42.06
2023-03-16T11:44:27.563Z,42.91
2023-03-16T11:47:13.960Z,42.26
2023-03-16T11:49:58.814Z,42.91
2023-03-16T11:52:53.651Z,42.91
2023-03-16T11:56:04.876Z,42.91
2023-03-16T11:58:56.772Z,42.83
2023-03-16T12:02:00.236Z,42.41
2023-03-16T12:04:44.947Z,41.79
2023-03-16T12:07:39.576Z,42.16
2023-03-16T12:10:46.703Z,42.00
2023-03-16T12:13:15.768Z,42.65
2023-03-16T12:15:56.809Z,42.87
2023-03-16T12:18:36.316Z,44.12
2023-03-16T12:21:32.261Z,45.50
2023-03-16T12:24:11.023Z,46.45
2023-03-16T12:26:42.414Z,46.02
2023-03-16T12:29:14.546Z,46.72
2023-03-16T12:31:49.450Z,46.93
2023-03-16T12:34:32.274Z,47.87
2023-03-16T12:37:19.370Z,47.44
2023-03-16T12:40:10.084Z,47.22
2023-03-16T12:42:48.432Z,47.18
2023-03-16T12:45:32.740Z,48.25
2023-03-16T12:48:43.009Z,47.92
2023-03-16T12:51:09.757Z,47.55
2023-03-16T12:53:46.863Z,47.89
2023-03-16T12:56:16.346Z,48.15
2023-03-16T12:58:45.698Z,48.06
2023-03-16T13:01:15.210Z,48.11
2023-03-16T13:03:43.038Z,48.55
2023-03-16T13:06:19.451Z,48.17
2023-03-16T13:08:52.740Z,48.26
2023-03-16T13:11:19.262Z,48.26
2023-03-16T13:14:00.661Z,47.61
2023-03-16T13:16:38.332Z,46.21
2023-03-16T13:19:28.823Z,45.32
2023-03-16T13:22:28.701Z,44.00
2023-03-16T13:25:14.069Z,43.88
2023-03-16T13:27:43.305Z,42.72
2023-03-16T13:30:36.993Z,41.64
2023-03-16T13:33:26.259Z,41.96
2023-03-16T13:35:54.555Z,40.83
2023-03-16T13:38:25.673Z,40.18
2023-03-16T13:40:55.306Z,39.57
2023-03-16T13:43:24.646Z,40.61
2023-03-16T13:45:51.976Z,41.01
2023-03-16T13:48:18.866Z,41.41
2023-03-16T13:50:51.992Z,40.38
2023-03-16T13:53:24.797Z,40.72
2023-03-16T13:55:53.466Z,40.79
2023-03-16T13:58:35.172Z,40.14
2023-03-16T14:01:04.729Z,38.88
2023-03-16T14:03:38.018Z,38.10
2023-03-16T14:06:06.738Z,38.72
2023-03-16T14:08:33.991Z,40.12
2023-03-16T14:11:01.719Z,40.34
2023-03-16T14:13:28.204Z,39.74
2023-03-16T14:16:01.730Z,39.74
2023-03-16T14:18:37.332Z,40.20
2023-03-16T14:21:09.838Z,40.16
2023-03-16T14:23:43.863Z,40.40
2023-03-16T14:26:16.476Z,40.61
2023-03-16T14:29:06.322Z,40.95
2023-03-16T14:31:38.674Z,41.08
2023-03-16T14:34:19.932Z,40.91
2023-03-16T14:36:46.316Z,41.72
2023-03-16T14:39:19.358Z,41.70
2023-03-16T14:41:50.232Z,41.99
2023-03-16T14:44:27.945Z,41.72
2023-03-16T14:46:59.242Z,41.22
2023-03-16T14:49:34.999Z,42.11
2023-03-16T14:52:07.939Z,41.62
2023-03-16T14:54:34.374Z,41.49
2023-03-16T14:57:05.509Z,41.86
2023-03-16T14:59:33.418Z,41.79
2023-03-16T15:02:03.013Z,42.22
2023-03-16T15:04:34.064Z,42.41
2023-03-16T15:07:06.966Z,42.37
2023-03-16T15:09:39.552Z,42.62
2023-03-16T15:12:17.219Z,42.93
2023-03-16T15:15:02.725Z,43.47
2023-03-16T15:17:29.301Z,43.22
2023-03-16T15:19:55.783Z,42.64
2023-03-16T15:22:31.503Z,43.44
2023-03-16T15:24:59.922Z,43.32
2023-03-16T15:27:33.838Z,43.11
2023-03-16T15:30:00.829Z,43.42
2023-03-16T15:32:27.411Z,43.97
2023-03-16T15:34:53.796Z,44.14
2023-03-16T15:37:20.727Z,44.32
2023-03-16T15:39:47.373Z,44.63
2023-03-16T15:42:16.802Z,44.34
2023-03-16T15:44:44.196Z,45.19
2023-03-16T15:47:10.889Z,44.94
2023-03-16T15:49:47.257Z,45.24
2023-03-16T15:52:36.655Z,45.17
2023-03-16T15:55:07.706Z,45.65
2023-03-16T15:57:35.371Z,45.87
2023-03-16T16:00:02.262Z,45.88
2023-03-16T16:02:31.869Z,45.57
2023-03-16T16:04:59.260Z,46.29
2023-03-16T16:07:27.095Z,46.61
2023-03-16T16:09:53.511Z,46.58
2023-03-16T16:12:26.562Z,46.35
2023-03-16T16:14:53.872Z,46.36
2023-03-16T16:17:36.465Z,46.56
2023-03-16T16:20:22.783Z,46.76
2023-03-16T16:22:51.966Z,47.18
2023-03-16T16:25:23.791Z,47.45
2023-03-16T16:27:51.726Z,47.49
2023-03-16T16:30:27.501Z,47.61
2023-03-16T16:32:55.045Z,47.03
2023-03-16T16:35:26.084Z,47.80
2023-03-16T16:37:52.559Z,47.75
2023-03-16T16:40:23.863Z,47.96
2023-03-16T16:42:53.007Z,48.28
2023-03-16T16:45:25.326Z,48.58
2023-03-16T16:47:55.533Z,48.29
2023-03-16T16:50:25.384Z,48.55
2023-03-16T16:52:53.319Z,48.68
2023-03-16T16:55:22.171Z,48.90
2023-03-16T16:57:52.288Z,49.17
2023-03-16T17:00:23.062Z,49.86
2023-03-16T17:02:53.565Z,49.55
2023-03-16T17:05:29.972Z,49.73
2023-03-16T17:07:56.594Z,49.60
2023-03-16T17:10:27.154Z,50.28
2023-03-16T17:12:56.795Z,50.59
2023-03-16T17:15:28.140Z,50.82
2023-03-16T17:18:10.412Z,51.11
2023-03-16T17:20:36.892Z,51.32
2023-03-16T17:23:03.344Z,51.51
2023-03-16T17:25:30.459Z,52.04
2023-03-16T17:27:57.915Z,52.08
2023-03-16T17:30:28.557Z,52.12
2023-03-16T17:32:59.326Z,52.48
2023-03-16T17:35:25.744Z,52.62
2023-03-16T17:37:52.215Z,52.45
2023-03-16T17:40:22.531Z,52.93
2023-03-16T17:42:49.959Z,52.90
2023-03-16T17:45:26.847Z,53.12
2023-03-16T17:47:55.142Z,53.51
2023-03-16T17:50:24.471Z,53.04
2023-03-16T17:52:52.767Z,53.15
2023-03-16T17:55:24.275Z,53.09
2023-03-16T17:57:54.897Z,53.48
2023-03-16T18:00:33.168Z,53.30
2023-03-16T18:03:01.883Z,53.96
2023-03-16T18:05:32.814Z,53.66
2023-03-16T18:08:07.259Z,54.10
2023-03-16T18:10:33.895Z,53.77
2023-03-16T18:13:07.561Z,53.88
2023-03-16T18:15:36.476Z,54.15
2023-03-16T18:18:07.123Z,54.17
2023-03-16T18:20:36.484Z,54.03
2023-03-16T18:23:15.400Z,54.32
2023-03-16T18:25:42.770Z,54.16
2023-03-16T18:28:12.484Z,53.98
2023-03-16T18:30:39.772Z,54.02
2023-03-16T18:33:08.271Z,54.14
2023-03-16T18:35:36.500Z,53.74
2023-03-16T18:38:14.858Z,53.96
2023-03-16T18:40:41.432Z,53.69
2023-03-16T18:43:14.841Z,53.83
2023-03-16T18:45:41.254Z,53.91
2023-03-16T18:48:18.890Z,53.97
2023-03-16T18:50:45.288Z,53.75
2023-03-16T18:53:16.206Z,53.73
2023-03-16T18:55:45.511Z,54.06
2023-03-16T18:58:18.753Z,54.35
2023-03-16T19:00:52.648Z,53.98
2023-03-16T19:03:33.202Z,54.46
2023-03-16T19:06:01.630Z,54.50
2023-03-16T19:08:29.069Z,54.19
2023-03-16T19:10:59.063Z,54.39
2023-03-16T19:13:26.210Z,54.26
2023-03-16T19:15:55.136Z,53.71
2023-03-16T19:18:22.833Z,54.02
2023-03-16T19:20:50.914Z,54.30
2023-03-16T19:23:25.709Z,54.35
2023-03-16T19:25:54.241Z,54.35
2023-03-16T19:28:33.585Z,53.93
2023-03-16T19:31:01.607Z,54.40
2023-03-16T19:33:29.006Z,54.73
2023-03-16T19:35:56.871Z,54.85
2023-03-16T19:38:24.818Z,54.57
2023-03-16T19:40:59.572Z,54.68
2023-03-16T19:43:28.303Z,54.48
2023-03-16T19:45:56.401Z,55.00
2023-03-16T19:48:32.949Z,54.82
2023-03-16T19:50:59.975Z,54.60
2023-03-16T19:53:27.270Z,54.53
2023-03-16T19:55:54.442Z,54.57
2023-03-16T19:58:42.632Z,54.90
2023-03-16T20:01:21.967Z,55.04
2023-03-16T20:03:49.717Z,55.22
2023-03-16T20:06:18.888Z,55.32
2023-03-16T20:08:46.762Z,55.65
2023-03-16T20:11:22.059Z,55.34
2023-03-16T20:13:48.957Z,55.38
2023-03-16T20:16:21.628Z,55.62
2023-03-16T20:18:52.514Z,55.84
2023-03-16T20:21:18.964Z,55.81
2023-03-16T20:23:45.490Z,55.83
2023-03-16T20:26:31.536Z,56.09
2023-03-16T20:28:59.655Z,56.18
2023-03-16T20:31:31.164Z,56.52
2023-03-16T20:33:58.204Z,56.08
2023-03-16T20:36:25.559Z,56.38
2023-03-16T20:38:52.056Z,56.18
2023-03-16T20:41:27.887Z,56.42
2023-03-16T20:43:56.269Z,56.47
2023-03-16T20:46:28.795Z,56.70
2023-03-16T20:48:55.866Z,56.73
2023-03-16T20:51:23.462Z,56.47
2023-03-16T20:53:50.207Z,56.83
2023-03-16T20:56:22.630Z,56.22
2023-03-16T20:58:51.118Z,56.76
2023-03-16T21:01:21.535Z,56.27
2023-03-16T21:03:55.102Z,56.12
2023-03-16T21:06:28.507Z,56.54
2023-03-16T21:08:57.678Z,56.56
2023-03-16T21:11:29.260Z,56.95
2023-03-16T21:13:56.439Z,56.71
2023-03-16T21:16:23.417Z,56.50
2023-03-16T21:18:49.924Z,56.90
2023-03-16T21:21:18.440Z,56.68
2023-03-16T21:23:45.468Z,56.13
2023-03-16T21:26:21.713Z,56.31
2023-03-16T21:28:56.627Z,56.57
2023-03-16T21:31:24.141Z,56.41
2023-03-16T21:33:53.701Z,56.29
2023-03-16T21:36:22.421Z,56.58
2023-03-16T21:38:50.838Z,56.35
2023-03-16T21:41:17.686Z,56.39
2023-03-16T21:43:44.618Z,56.63
2023-03-16T21:46:19.845Z,56.42
2023-03-16T21:48:49.520Z,56.10
2023-03-16T21:51:19.138Z,56.33
2023-03-16T21:53:46.802Z,56.10
2023-03-16T21:56:19.412Z,56.47
2023-03-16T21:58:47.080Z,56.41
2023-03-16T22:01:27.666Z,56.21
2023-03-16T22:03:57.601Z,55.79
2023-03-16T22:06:27.937Z,56.02
2023-03-16T22:08:55.134Z,56.16
2023-03-16T22:11:24.679Z,55.94
2023-03-16T22:13:51.745Z,56.02
2023-03-16T22:16:21.726Z,55.93
2023-03-16T22:18:50.091Z,56.45
2023-03-16T22:21:19.602Z,56.10
2023-03-16T22:23:46.240Z,55.73
2023-03-16T22:26:16.878Z,55.79
2023-03-16T22:28:44.002Z,56.02
2023-03-16T22:31:16.291Z,55.86
2023-03-16T22:33:44.125Z,56.14
2023-03-16T22:36:13.691Z,55.63
2023-03-16T22:38:41.420Z,55.42
2023-03-16T22:41:12.005Z,55.52
2023-03-16T22:43:42.274Z,55.19
2023-03-16T22:46:21.082Z,55.14
2023-03-16T22:48:47.548Z,55.04
2023-03-16T22:51:30.036Z,55.41
2023-03-16T22:54:01.239Z,55.86
2023-03-16T22:56:29.625Z,55.57
2023-03-16T22:59:00.616Z,55.49
2023-03-16T23:01:43.535Z,55.46
2023-03-16T23:04:22.256Z,55.50
2023-03-16T23:06:51.398Z,55.67
2023-03-16T23:09:20.333Z,55.38
2023-03-16T23:11:49.156Z,55.54
2023-03-16T23:14:19.172Z,55.72
2023-03-16T23:16:46.586Z,55.62
2023-03-16T23:19:27.899Z,56.13
2023-03-16T23:21:56.787Z,55.79
2023-03-16T23:24:24.106Z,55.94
2023-03-16T23:26:52.148Z,55.67
2023-03-16T23:29:18.988Z,55.88
2023-03-16T23:31:45.426Z,56.01
2023-03-16T23:34:14.125Z,55.94
2023-03-16T23:36:40.931Z,55.86
2023-03-16T23:39:07.737Z,55.76
2023-03-16T23:41:34.940Z,55.75
2023-03-16T23:44:03.252Z,56.23
2023-03-16T23:46:29.974Z,56.13
2023-03-16T23:48:58.901Z,55.65
2023-03-16T23:51:29.492Z,55.93
2023-03-16T23:53:56.425Z,55.44
2023-03-16T23:56:23.200Z,55.75
2023-03-16T23:58:50.768Z,55.71
